createdAt,value
2023-01-19T00:00:56.370Z,100022.90
2023-01-19T00:03:28.581Z,100028.08
2023-01-19T00:05:56.727Z,100032.38
2023-01-19T00:08:24.664Z,100033.42
2023-01-19T00:10:52.614Z,100044.13
2023-01-19T00:13:21.027Z,100051.88
2023-01-19T00:15:49.101Z,100059.46
2023-01-19T00:18:17.165Z,100063.42
2023-01-19T00:20:46.172Z,100066.50
2023-01-19T00:23:15.750Z,100062.00
2023-01-19T00:25:43.891Z,100067.51
2023-01-19T00:28:13.801Z,100074.21
2023-01-19T00:30:42.513Z,100081.24
2023-01-19T00:33:13.883Z,100094.69
2023-01-19T00:35:45.561Z,100100.17
2023-01-19T00:38:13.618Z,100106.17
2023-01-19T00:40:41.573Z,100114.27
2023-01-19T00:43:09.659Z,100121.16
2023-01-19T00:45:37.653Z,100132.53
2023-01-19T00:48:05.908Z,100142.52
2023-01-19T00:50:34.859Z,100154.58
2023-01-19T00:53:03.489Z,100161.06
2023-01-19T00:55:33.653Z,100161.84
2023-01-19T00:58:03.083Z,100167.13
2023-01-19T01:00:31.273Z,100175.56
2023-01-19T01:02:59.960Z,100182.44
2023-01-19T01:05:28.736Z,100187.23
2023-01-19T01:07:56.803Z,100195.10
2023-01-19T01:10:28.032Z,100200.77
2023-01-19T01:12:58.188Z,100202.83
2023-01-19T01:15:28.013Z,100210.41
2023-01-19T01:17:56.427Z,100212.50
2023-01-19T01:20:28.249Z,100213.70
2023-01-19T01:22:58.034Z,100215.94
2023-01-19T01:25:28.681Z,100218.16
2023-01-19T01:27:57.236Z,100216.06
2023-01-19T01:30:25.310Z,100216.91
2023-01-19T01:32:53.279Z,100227.27
2023-01-19T01:35:21.357Z,100228.65
2023-01-19T01:37:49.502Z,100230.89
2023-01-19T01:40:19.127Z,100230.55
2023-01-19T01:42:47.179Z,100228.83
2023-01-19T01:45:29.756Z,100230.73
2023-01-19T01:48:22.570Z,100229.15
2023-01-19T01:51:16.224Z,100240.46
2023-01-19T01:53:47.531Z,100247.29
2023-01-19T01:56:21.795Z,100252.41
2023-01-19T01:58:50.288Z,100254.59
2023-01-19T02:01:37.388Z,100256.13
2023-01-19T02:04:05.544Z,100259.55
2023-01-19T02:06:34.768Z,100267.83
2023-01-19T02:09:26.127Z,100274.02
2023-01-19T02:12:13.812Z,100279.29
2023-01-19T02:14:41.871Z,100281.25
2023-01-19T02:17:09.839Z,100282.40
2023-01-19T02:19:44.011Z,100277.67
2023-01-19T02:22:24.923Z,100278.44
2023-01-19T02:24:54.052Z,100281.98
2023-01-19T02:27:22.102Z,100283.52
2023-01-19T02:29:50.162Z,100284.70
2023-01-19T02:32:18.208Z,100286.95
2023-01-19T02:34:46.177Z,100289.19
2023-01-19T02:37:18.681Z,100293.48
2023-01-19T02:39:53.839Z,100298.29
2023-01-19T02:42:27.718Z,100305.14
2023-01-19T02:44:57.500Z,100310.76
2023-01-19T02:47:25.452Z,100320.86
2023-01-19T02:50:01.255Z,100328.76
2023-01-19T02:52:29.504Z,100332.52
2023-01-19T02:55:22.475Z,100335.41
2023-01-19T02:58:15.069Z,100333.07
2023-01-19T03:00:52.856Z,100339.84
2023-01-19T03:03:53.146Z,100347.63
2023-01-19T03:06:53.372Z,100348.31
2023-01-19T03:09:46.324Z,100350.46
2023-01-19T03:12:27.133Z,100347.37
2023-01-19T03:15:01.837Z,100346.89
2023-01-19T03:17:32.112Z,100350.23
2023-01-19T03:20:00.525Z,100351.35
2023-01-19T03:22:29.821Z,100346.61
2023-01-19T03:25:01.201Z,100339.27
2023-01-19T03:27:34.027Z,100337.95
2023-01-19T03:30:11.450Z,100330.08
2023-01-19T03:32:53.132Z,100339.27
2023-01-19T03:35:23.703Z,100344.30
2023-01-19T03:37:56.094Z,100345.06
2023-01-19T03:40:29.630Z,100346.64
2023-01-19T03:43:00.424Z,100354.75
2023-01-19T03:45:30.958Z,100357.17
2023-01-19T03:48:00.054Z,100356.68
2023-01-19T03:50:30.297Z,100354.30
2023-01-19T03:53:05.258Z,100353.10
2023-01-19T03:55:35.051Z,100355.38
2023-01-19T03:58:03.088Z,100355.26
2023-01-19T04:00:31.635Z,100356.30
2023-01-19T04:03:00.469Z,100350.48
2023-01-19T04:05:29.690Z,100342.58
2023-01-19T04:07:57.733Z,100337.75
2023-01-19T04:10:25.786Z,100341.52
2023-01-19T04:13:01.476Z,100347.85
2023-01-19T04:15:30.763Z,100354.55
2023-01-19T04:17:59.990Z,100356.94
2023-01-19T04:20:29.016Z,100354.86
2023-01-19T04:23:01.537Z,100352.92
2023-01-19T04:25:29.920Z,100351.70
2023-01-19T04:28:00.756Z,100347.89
2023-01-19T04:30:28.831Z,100350.60
2023-01-19T04:32:59.888Z,100352.45
2023-01-19T04:35:28.089Z,100355.33
2023-01-19T04:37:56.204Z,100359.92
2023-01-19T04:40:24.457Z,100361.23
2023-01-19T04:42:52.451Z,100360.82
2023-01-19T04:45:20.527Z,100364.71
2023-01-19T04:47:50.000Z,100366.37
2023-01-19T04:50:18.106Z,100366.98
2023-01-19T04:52:47.107Z,100361.91
2023-01-19T04:55:15.580Z,100362.70
2023-01-19T04:57:44.235Z,100371.97
2023-01-19T05:00:12.822Z,100371.41
2023-01-19T05:02:42.842Z,100366.89
2023-01-19T05:05:12.002Z,100369.41
2023-01-19T05:07:40.080Z,100375.23
2023-01-19T05:10:09.082Z,100379.98
2023-01-19T05:12:37.799Z,100385.27
2023-01-19T05:15:07.934Z,100384.90
2023-01-19T05:17:36.494Z,100385.38
2023-01-19T05:20:04.877Z,100384.15
2023-01-19T05:22:32.923Z,100384.96
2023-01-19T05:25:01.856Z,100382.65
2023-01-19T05:27:29.915Z,100386.20
2023-01-19T05:29:58.081Z,100383.38
2023-01-19T05:32:26.051Z,100378.27
2023-01-19T05:34:54.013Z,100382.10
2023-01-19T05:37:22.086Z,100384.73
2023-01-19T05:39:50.155Z,100394.96
2023-01-19T05:42:18.229Z,100391.47
2023-01-19T05:44:46.505Z,100390.89
2023-01-19T05:47:14.418Z,100394.41
2023-01-19T05:49:42.453Z,100398.30
2023-01-19T05:52:10.432Z,100399.48
2023-01-19T05:54:40.498Z,100399.98
2023-01-19T05:57:08.575Z,100408.61
2023-01-19T05:59:36.551Z,100412.91
2023-01-19T06:02:04.564Z,100416.84
2023-01-19T06:04:32.526Z,100423.36
2023-01-19T06:07:00.876Z,100427.15
2023-01-19T06:09:29.324Z,100424.90
2023-01-19T06:11:59.582Z,100426.59
2023-01-19T06:14:27.673Z,100434.17
2023-01-19T06:16:55.745Z,100440.67
2023-01-19T06:19:23.890Z,100445.20
2023-01-19T06:21:52.602Z,100450.38
2023-01-19T06:24:20.750Z,100451.97
2023-01-19T06:26:48.884Z,100454.77
2023-01-19T06:29:17.273Z,100459.37
2023-01-19T06:31:45.404Z,100462.58
2023-01-19T06:34:13.636Z,100472.80
2023-01-19T06:36:41.756Z,100478.09
2023-01-19T06:39:09.893Z,100485.43
2023-01-19T06:41:38.560Z,100495.02
2023-01-19T06:44:06.561Z,100498.91
2023-01-19T06:46:36.043Z,100502.83
2023-01-19T06:49:04.426Z,100498.73
2023-01-19T06:51:32.394Z,100508.65
2023-01-19T06:54:00.573Z,100508.98
2023-01-19T06:56:28.636Z,100513.95
2023-01-19T06:58:56.821Z,100518.77
2023-01-19T07:01:24.954Z,100520.00
2023-01-19T07:03:53.167Z,100529.30
2023-01-19T07:06:21.134Z,100535.34
2023-01-19T07:08:49.399Z,100539.67
2023-01-19T07:11:24.705Z,100546.73
2023-01-19T07:13:58.346Z,100560.85
2023-01-19T07:16:26.750Z,100560.05
2023-01-19T07:18:54.816Z,100570.30
2023-01-19T07:21:23.060Z,100569.70
2023-01-19T07:23:52.575Z,100570.30
2023-01-19T07:26:22.252Z,100572.98
2023-01-19T07:28:50.962Z,100583.54
2023-01-19T07:31:19.496Z,100585.34
2023-01-19T07:33:47.738Z,100584.56
2023-01-19T07:36:15.834Z,100587.19
2023-01-19T07:38:43.855Z,100591.98
2023-01-19T07:41:12.135Z,100600.38
2023-01-19T07:43:40.198Z,100605.72
2023-01-19T07:46:08.572Z,100608.46
2023-01-19T07:48:36.867Z,100618.45
2023-01-19T07:51:10.464Z,100621.21
2023-01-19T07:53:42.057Z,100626.27
2023-01-19T07:56:10.511Z,100631.05
2023-01-19T07:58:39.504Z,100626.23
2023-01-19T08:01:12.738Z,100622.14
2023-01-19T08:03:41.084Z,100624.89
2023-01-19T08:06:23.271Z,100622.30
2023-01-19T08:08:51.632Z,100627.24
2023-01-19T08:11:19.620Z,100633.76
2023-01-19T08:13:47.660Z,100628.05
2023-01-19T08:16:15.708Z,100625.60
2023-01-19T08:18:43.702Z,100630.21
2023-01-19T08:21:11.665Z,100631.19
2023-01-19T08:23:39.681Z,100626.25
2023-01-19T08:26:40.065Z,100626.35
2023-01-19T08:29:08.009Z,100629.83
2023-01-19T08:31:36.312Z,100625.99
2023-01-19T08:34:04.586Z,100628.18
2023-01-19T08:36:32.675Z,100629.32
2023-01-19T08:39:00.726Z,100632.48
2023-01-19T08:41:28.750Z,100642.41
2023-01-19T08:43:57.076Z,100643.21
2023-01-19T08:46:25.041Z,100645.39
2023-01-19T08:48:53.146Z,100647.20
2023-01-19T08:51:21.282Z,100648.98
2023-01-19T08:53:49.292Z,100647.26
2023-01-19T08:56:20.362Z,100656.25
2023-01-19T08:58:59.436Z,100662.14
2023-01-19T09:01:37.254Z,100657.84
2023-01-19T09:04:05.689Z,100660.67
2023-01-19T09:06:34.359Z,100664.55
2023-01-19T09:09:02.764Z,100666.69
2023-01-19T09:11:31.061Z,100668.33
2023-01-19T09:13:59.233Z,100675.13
2023-01-19T09:16:28.815Z,100682.70
2023-01-19T09:18:56.993Z,100686.36
2023-01-19T09:21:24.954Z,100686.92
2023-01-19T09:23:55.213Z,100685.40
2023-01-19T09:26:23.994Z,100687.48
2023-01-19T09:28:52.038Z,100689.58
2023-01-19T09:31:20.232Z,100690.42
2023-01-19T09:33:48.379Z,100690.38
2023-01-19T09:36:16.453Z,100687.90
2023-01-19T09:38:44.457Z,100689.86
2023-01-19T09:41:21.071Z,100688.08
2023-01-19T09:43:55.824Z,100686.63
2023-01-19T09:46:40.220Z,100683.85
2023-01-19T09:49:22.979Z,100682.84
2023-01-19T09:51:51.489Z,100680.46
2023-01-19T09:54:29.384Z,100671.71
2023-01-19T09:56:57.453Z,100666.30
2023-01-19T09:59:29.021Z,100665.86
2023-01-19T10:02:21.972Z,100665.60
2023-01-19T10:05:13.563Z,100665.10
2023-01-19T10:07:54.760Z,100659.09
2023-01-19T10:10:31.729Z,100650.91
2023-01-19T10:13:04.298Z,100650.18
2023-01-19T10:16:06.386Z,100652.38
2023-01-19T10:18:51.981Z,100656.52
2023-01-19T10:21:41.209Z,100654.63
2023-01-19T10:24:18.494Z,100657.43
2023-01-19T10:26:53.344Z,100659.92
2023-01-19T10:29:28.015Z,100660.36
2023-01-19T10:32:22.953Z,100660.21
2023-01-19T10:34:52.462Z,100662.77
2023-01-19T10:37:34.349Z,100663.92
2023-01-19T10:40:23.038Z,100663.68
2023-01-19T10:42:51.171Z,100668.41
2023-01-19T10:45:26.187Z,100669.05
2023-01-19T10:47:58.074Z,100669.83
2023-01-19T10:50:35.295Z,100674.02
2023-01-19T10:53:06.071Z,100672.44
2023-01-19T10:55:39.851Z,100668.33
2023-01-19T10:58:28.114Z,100667.86
2023-01-19T11:00:56.431Z,100668.50
2023-01-19T11:03:28.699Z,100662.06
2023-01-19T11:06:15.575Z,100661.98
2023-01-19T11:08:45.627Z,100658.98
2023-01-19T11:11:14.378Z,100654.13
2023-01-19T11:13:43.736Z,100659.56
2023-01-19T11:16:45.023Z,100658.16
2023-01-19T11:19:20.299Z,100657.56
2023-01-19T11:21:48.356Z,100659.59
2023-01-19T11:24:16.937Z,100657.90
2023-01-19T11:26:48.389Z,100661.52
2023-01-19T11:29:22.740Z,100657.92
2023-01-19T11:31:52.259Z,100661.19
2023-01-19T11:34:34.231Z,100655.98
2023-01-19T11:37:05.047Z,100654.73
2023-01-19T11:39:46.973Z,100652.72
2023-01-19T11:42:16.270Z,100646.17
2023-01-19T11:44:58.659Z,100647.23
2023-01-19T11:47:35.792Z,100650.08
2023-01-19T11:50:16.033Z,100650.06
2023-01-19T11:53:13.232Z,100648.20
2023-01-19T11:55:52.704Z,100642.02
2023-01-19T11:58:21.046Z,100634.96
2023-01-19T12:00:59.189Z,100638.31
2023-01-19T12:03:31.945Z,100640.29
2023-01-19T12:06:18.559Z,100635.55
2023-01-19T12:08:58.148Z,100633.85
2023-01-19T12:11:43.517Z,100628.59
2023-01-19T12:14:28.924Z,100631.27
2023-01-19T12:17:01.203Z,100625.34
2023-01-19T12:19:54.814Z,100619.68
2023-01-19T12:22:24.227Z,100621.49
2023-01-19T12:25:04.114Z,100620.92
2023-01-19T12:27:37.964Z,100624.20
2023-01-19T12:30:17.480Z,100620.79
2023-01-19T12:32:45.699Z,100627.09
2023-01-19T12:36:04.035Z,100628.02
2023-01-19T12:39:02.363Z,100630.86
2023-01-19T12:41:38.094Z,100625.21
2023-01-19T12:44:12.744Z,100631.52
2023-01-19T12:46:42.024Z,100632.80
2023-01-19T12:49:35.710Z,100637.86
2023-01-19T12:52:35.917Z,100642.76
2023-01-19T12:55:23.360Z,100639.86
2023-01-19T12:58:08.073Z,100638.56
2023-01-19T13:00:38.938Z,100647.99
2023-01-19T13:03:16.263Z,100647.33
2023-01-19T13:05:44.205Z,100643.82
2023-01-19T13:08:17.207Z,100642.57
2023-01-19T13:11:00.288Z,100636.71
2023-01-19T13:13:32.586Z,100632.60
2023-01-19T13:16:18.960Z,100633.82
2023-01-19T13:19:00.745Z,100634.17
2023-01-19T13:21:43.630Z,100632.11
2023-01-19T13:24:23.224Z,100629.89
2023-01-19T13:26:54.642Z,100636.16
2023-01-19T13:29:30.281Z,100629.00
2023-01-19T13:32:03.897Z,100624.91
2023-01-19T13:34:45.212Z,100624.98
2023-01-19T13:37:20.527Z,100627.45
2023-01-19T13:39:52.063Z,100630.09
2023-01-19T13:42:37.376Z,100633.77
2023-01-19T13:45:30.046Z,100633.95
2023-01-19T13:48:00.482Z,100633.91
2023-01-19T13:50:30.268Z,100633.91
2023-01-19T13:52:59.502Z,100637.44
2023-01-19T13:55:29.651Z,100636.98
2023-01-19T13:57:58.371Z,100638.33
2023-01-19T14:00:29.514Z,100634.33
2023-01-19T14:03:13.911Z,100634.70
2023-01-19T14:05:43.471Z,100639.36
2023-01-19T14:08:11.534Z,100634.87
2023-01-19T14:10:46.125Z,100640.06
2023-01-19T14:13:20.016Z,100641.34
2023-01-19T14:15:50.669Z,100646.66
2023-01-19T14:18:19.331Z,100648.61
2023-01-19T14:20:58.340Z,100647.11
2023-01-19T14:24:17.120Z,100650.06
2023-01-19T14:26:53.170Z,100648.80
2023-01-19T14:29:40.602Z,100653.14
2023-01-19T14:32:17.614Z,100651.70
2023-01-19T14:34:45.865Z,100654.62
2023-01-19T14:37:24.771Z,100659.98
2023-01-19T14:40:24.673Z,100666.30
2023-01-19T14:42:57.605Z,100666.88
2023-01-19T14:45:31.940Z,100668.66
2023-01-19T14:48:03.043Z,100670.72
2023-01-19T14:50:38.126Z,100675.88
2023-01-19T14:53:15.003Z,100672.10
2023-01-19T14:56:09.356Z,100674.39
2023-01-19T14:58:37.402Z,100682.14
2023-01-19T15:01:06.517Z,100682.27
2023-01-19T15:03:49.306Z,100685.16
2023-01-19T15:06:21.315Z,100684.30
2023-01-19T15:08:50.485Z,100683.77
2023-01-19T15:11:40.964Z,100684.63
2023-01-19T15:14:14.212Z,100692.39
2023-01-19T15:16:43.084Z,100696.89
2023-01-19T15:19:12.923Z,100695.89
2023-01-19T15:21:45.350Z,100697.65
2023-01-19T15:24:15.886Z,100703.70
2023-01-19T15:26:45.751Z,100706.05
2023-01-19T15:29:25.637Z,100702.91
2023-01-19T15:31:53.854Z,100708.73
2023-01-19T15:34:21.835Z,100710.83
2023-01-19T15:36:49.788Z,100712.54
2023-01-19T15:39:18.011Z,100718.40
2023-01-19T15:41:46.128Z,100719.45
2023-01-19T15:44:14.227Z,100721.52
2023-01-19T15:46:42.373Z,100722.69
2023-01-19T15:49:10.357Z,100722.14
2023-01-19T15:51:38.515Z,100721.72
2023-01-19T15:54:06.509Z,100720.95
2023-01-19T15:56:34.554Z,100720.73
2023-01-19T15:59:02.628Z,100723.10
2023-01-19T16:01:32.452Z,100721.31
2023-01-19T16:04:06.966Z,100718.73
2023-01-19T16:06:35.331Z,100720.48
2023-01-19T16:09:04.043Z,100722.21
2023-01-19T16:11:34.507Z,100726.71
2023-01-19T16:14:02.733Z,100730.73
2023-01-19T16:16:30.791Z,100732.83
2023-01-19T16:18:58.866Z,100739.36
2023-01-19T16:21:27.351Z,100742.30
2023-01-19T16:23:55.663Z,100743.98
2023-01-19T16:26:35.010Z,100747.79
2023-01-19T16:29:09.989Z,100755.00
2023-01-19T16:31:39.415Z,100757.56
2023-01-19T16:34:08.699Z,100759.15
2023-01-19T16:36:38.606Z,100758.27
2023-01-19T16:39:09.279Z,100753.91
2023-01-19T16:41:37.503Z,100753.02
2023-01-19T16:44:06.195Z,100758.63
2023-01-19T16:46:37.021Z,100759.98
2023-01-19T16:49:14.986Z,100760.34
2023-01-19T16:51:44.018Z,100755.31
2023-01-19T16:54:18.126Z,100755.15
2023-01-19T16:56:46.879Z,100758.36
2023-01-19T16:59:16.851Z,100757.76
2023-01-19T17:01:45.835Z,100753.96
2023-01-19T17:04:14.606Z,100750.39
2023-01-19T17:06:42.993Z,100752.74
2023-01-19T17:09:10.986Z,100752.06
2023-01-19T17:11:42.741Z,100755.53
2023-01-19T17:14:14.993Z,100757.79
2023-01-19T17:16:44.019Z,100758.55
2023-01-19T17:19:20.850Z,100763.77
2023-01-19T17:21:49.549Z,100763.27
2023-01-19T17:24:18.492Z,100764.84
2023-01-19T17:26:48.744Z,100765.70
2023-01-19T17:29:17.134Z,100768.55
2023-01-19T17:31:46.083Z,100776.09
2023-01-19T17:34:14.215Z,100774.82
2023-01-19T17:36:42.412Z,100774.91
2023-01-19T17:39:14.939Z,100773.86
2023-01-19T17:41:43.041Z,100770.29
2023-01-19T17:44:11.155Z,100766.20
2023-01-19T17:46:39.654Z,100769.61
2023-01-19T17:49:08.455Z,100770.42
2023-01-19T17:51:36.914Z,100774.21
2023-01-19T17:54:05.336Z,100777.51
2023-01-19T17:56:36.967Z,100776.82
2023-01-19T17:59:08.189Z,100775.77
2023-01-19T18:01:40.109Z,100774.91
2023-01-19T18:04:08.939Z,100775.26
2023-01-19T18:06:38.071Z,100780.16
2023-01-19T18:09:08.903Z,100776.59
2023-01-19T18:11:37.057Z,100775.72
2023-01-19T18:14:06.469Z,100773.48
2023-01-19T18:16:35.008Z,100777.14
2023-01-19T18:19:03.065Z,100777.23
2023-01-19T18:21:31.100Z,100776.46
2023-01-19T18:24:04.152Z,100776.16
2023-01-19T18:26:35.040Z,100779.45
2023-01-19T18:29:03.302Z,100777.20
2023-01-19T18:31:31.477Z,100779.98
2023-01-19T18:33:59.930Z,100777.77
2023-01-19T18:36:28.157Z,100777.67
2023-01-19T18:38:56.382Z,100774.44
2023-01-19T18:41:24.662Z,100774.64
2023-01-19T18:43:58.295Z,100777.10
2023-01-19T18:46:26.441Z,100777.17
2023-01-19T18:48:54.605Z,100777.05
2023-01-19T18:51:22.675Z,100777.39
2023-01-19T18:53:50.859Z,100779.12
2023-01-19T18:56:18.861Z,100776.88
2023-01-19T18:58:47.101Z,100774.42
2023-01-19T19:01:32.824Z,100776.16
2023-01-19T19:04:01.774Z,100774.88
2023-01-19T19:06:29.806Z,100774.31
2023-01-19T19:08:59.395Z,100777.26
2023-01-19T19:11:28.265Z,100777.94
2023-01-19T19:14:01.096Z,100774.98
2023-01-19T19:16:30.347Z,100772.39
2023-01-19T19:18:59.621Z,100773.98
2023-01-19T19:21:27.923Z,100774.05
2023-01-19T19:23:57.797Z,100771.70
2023-01-19T19:26:28.276Z,100769.84
2023-01-19T19:28:56.543Z,100767.56
2023-01-19T19:31:26.972Z,100768.73
2023-01-19T19:33:56.711Z,100768.66
2023-01-19T19:36:27.116Z,100771.73
2023-01-19T19:38:55.448Z,100771.01
2023-01-19T19:41:27.186Z,100774.99
2023-01-19T19:43:55.970Z,100777.80
2023-01-19T19:46:25.614Z,100776.29
2023-01-19T19:48:54.691Z,100781.66
2023-01-19T19:51:28.336Z,100784.20
2023-01-19T19:53:59.168Z,100784.64
2023-01-19T19:56:30.029Z,100783.42
2023-01-19T19:58:59.711Z,100789.64
2023-01-19T20:01:32.997Z,100789.14
2023-01-19T20:04:09.676Z,100786.92
2023-01-19T20:06:44.684Z,100785.02
2023-01-19T20:09:14.387Z,100791.07
2023-01-19T20:11:45.254Z,100787.75
2023-01-19T20:14:16.313Z,100787.56
2023-01-19T20:16:44.714Z,100786.75
2023-01-19T20:19:13.037Z,100786.30
2023-01-19T20:21:41.980Z,100786.98
2023-01-19T20:24:15.755Z,100784.77
2023-01-19T20:26:47.295Z,100785.44
2023-01-19T20:29:15.895Z,100786.27
2023-01-19T20:31:46.966Z,100785.16
2023-01-19T20:34:18.113Z,100787.67
2023-01-19T20:36:49.856Z,100788.79
2023-01-19T20:39:20.305Z,100793.04
2023-01-19T20:41:50.895Z,100791.47
2023-01-19T20:44:22.467Z,100792.32
2023-01-19T20:46:51.383Z,100787.36
2023-01-19T20:49:19.769Z,100793.02
2023-01-19T20:51:47.921Z,100790.13
2023-01-19T20:54:19.818Z,100789.98
2023-01-19T20:56:48.212Z,100789.05
2023-01-19T20:59:16.923Z,100787.79
2023-01-19T21:01:45.753Z,100789.13
2023-01-19T21:04:14.502Z,100790.98
2023-01-19T21:06:42.818Z,100790.98
2023-01-19T21:09:11.475Z,100785.45
2023-01-19T21:11:40.341Z,100781.83
2023-01-19T21:14:08.441Z,100786.19
2023-01-19T21:16:37.808Z,100787.40
2023-01-19T21:19:06.346Z,100791.31
2023-01-19T21:21:34.540Z,100797.15
2023-01-19T21:24:03.915Z,100797.48
2023-01-19T21:26:33.762Z,100801.98
2023-01-19T21:29:03.644Z,100804.73
2023-01-19T21:31:31.746Z,100801.63
2023-01-19T21:34:00.167Z,100803.23
2023-01-19T21:36:28.388Z,100806.91
2023-01-19T21:39:00.611Z,100813.20
2023-01-19T21:41:34.929Z,100813.10
2023-01-19T21:44:03.100Z,100817.84
2023-01-19T21:46:33.151Z,100815.31
2023-01-19T21:49:04.539Z,100815.08
2023-01-19T21:51:35.020Z,100813.40
2023-01-19T21:54:04.993Z,100819.52
2023-01-19T21:56:34.758Z,100819.21
2023-01-19T21:59:03.695Z,100818.52
2023-01-19T22:01:33.337Z,100824.95
2023-01-19T22:04:01.514Z,100822.54
2023-01-19T22:06:29.667Z,100823.90
2023-01-19T22:08:58.573Z,100826.10
2023-01-19T22:11:27.917Z,100829.69
2023-01-19T22:13:56.107Z,100831.91
2023-01-19T22:16:24.206Z,100839.52
2023-01-19T22:18:56.364Z,100833.51
2023-01-19T22:21:27.608Z,100833.36
2023-01-19T22:23:59.143Z,100837.52
2023-01-19T22:26:28.905Z,100844.48
2023-01-19T22:28:59.602Z,100842.32
2023-01-19T22:31:29.526Z,100847.57
2023-01-19T22:33:58.403Z,100847.27
2023-01-19T22:36:29.547Z,100850.41
2023-01-19T22:38:58.947Z,100847.45
2023-01-19T22:41:29.538Z,100849.53
2023-01-19T22:44:01.348Z,100851.45
2023-01-19T22:46:31.705Z,100852.70
2023-01-19T22:49:00.282Z,100847.74
2023-01-19T22:51:29.964Z,100851.06
2023-01-19T22:53:58.250Z,100866.29
2023-01-19T22:56:28.962Z,100871.17
2023-01-19T22:58:59.079Z,100865.27
2023-01-19T23:01:35.622Z,100868.75
2023-01-19T23:04:04.995Z,100865.62
2023-01-19T23:06:36.708Z,100865.94
2023-01-19T23:09:08.050Z,100869.17
2023-01-19T23:11:38.700Z,100875.33
2023-01-19T23:14:09.726Z,100871.80
2023-01-19T23:16:37.794Z,100874.16
2023-01-19T23:19:05.969Z,100876.56
2023-01-19T23:21:34.342Z,100879.02
2023-01-19T23:24:04.794Z,100881.57
2023-01-19T23:26:39.545Z,100882.06
2023-01-19T23:29:11.433Z,100883.45
2023-01-19T23:31:43.512Z,100890.19
2023-01-19T23:34:13.486Z,100890.39
2023-01-19T23:36:42.637Z,100893.00
2023-01-19T23:39:19.361Z,100896.64
2023-01-19T23:41:48.193Z,100903.35
2023-01-19T23:44:17.298Z,100905.08
2023-01-19T23:46:46.180Z,100904.70
2023-01-19T23:49:14.421Z,100908.50
2023-01-19T23:51:42.935Z,100909.71
2023-01-19T23:54:12.466Z,100911.23
2023-01-19T23:56:42.764Z,100912.92
2023-01-19T23:59:15.144Z,100913.05
